Time;durP1;ratioP1;P1;durP2;ratioP2;P2;SDS_P1;SDS_P2;PMS_P1;PMS_P2;Temp;Humidity;BMP_temperature;BMP_pressure;BME280_temperature;BME280_humidity;BME280_pressure;Samples;Min_cycle;Max_cycle;Signal;HPM_P1;HPM_P2
2023/11/23 00:00:05;;;;;;;33.70;25.10;;;;;;;-0.84;100.00;99719.16;109566;1252;60054;-73
2023/11/23 00:02:32;;;;;;;39.10;25.50;;;;;;;-0.86;100.00;99716.92;109575;1252;62826;-76
2023/11/23 00:04:59;;;;;;;32.90;23.20;;;;;;;-0.88;100.00;99713.45;109567;1254;58986;-74
2023/11/23 00:07:25;;;;;;;34.00;24.00;;;;;;;-0.90;100.00;99718.00;109534;1253;59034;-74
2023/11/23 00:09:52;;;;;;;33.20;23.50;;;;;;;-0.91;100.00;99721.49;109563;1251;58960;-73
2023/11/23 00:12:18;;;;;;;32.60;23.30;;;;;;;-0.91;100.00;99719.58;109573;1253;58901;-74
2023/11/23 00:14:44;;;;;;;31.70;22.40;;;;;;;-0.91;100.00;99717.66;109535;1253;58978;-73
2023/11/23 00:17:12;;;;;;;31.80;21.00;;;;;;;-0.93;100.00;99718.20;109305;1253;59040;-73
2023/11/23 00:19:39;;;;;;;34.90;23.50;;;;;;;-0.95;100.00;99721.36;109570;1253;59052;-74
2023/11/23 00:25:46;;;;;;;32.70;23.40;;;;;;;-0.94;100.00;99710.02;109518;1254;59891;-74
2023/11/23 00:28:12;;;;;;;32.70;23.50;;;;;;;-0.93;100.00;99708.43;109529;1253;64073;-74
2023/11/23 00:30:39;;;;;;;34.60;23.50;;;;;;;-0.92;100.00;99700.58;109555;1253;58941;-72
2023/11/23 00:33:05;;;;;;;36.90;24.00;;;;;;;-0.92;100.00;99692.55;109470;1253;59156;-74
2023/11/23 00:35:32;;;;;;;37.60;25.50;;;;;;;-0.93;100.00;99693.95;109509;1251;59248;-74
2023/11/23 00:37:58;;;;;;;34.80;25.00;;;;;;;-0.94;100.00;99695.72;109251;1254;59479;-72
2023/11/23 00:40:25;;;;;;;35.30;24.40;;;;;;;-0.93;100.00;99689.59;109541;1252;59031;-73
2023/11/23 00:42:51;;;;;;;35.60;23.50;;;;;;;-0.92;100.00;99692.73;109283;1253;59023;-73
2023/11/23 00:45:17;;;;;;;34.70;25.20;;;;;;;-0.92;100.00;99691.34;109564;1253;59228;-72
2023/11/23 00:47:44;;;;;;;35.70;23.60;;;;;;;-0.92;100.00;99687.15;109534;1252;58960;-73
2023/11/23 00:50:10;;;;;;;32.90;22.40;;;;;;;-0.93;100.00;99683.84;109525;1252;59014;-73
2023/11/23 00:52:37;;;;;;;33.40;22.40;;;;;;;-0.93;100.00;99676.68;109529;1254;59515;-73
2023/11/23 00:55:04;;;;;;;30.70;21.90;;;;;;;-0.92;100.00;99669.19;109545;1253;59249;-73
2023/11/23 00:57:32;;;;;;;33.00;23.40;;;;;;;-0.93;100.00;99667.27;109359;1254;59361;-73
2023/11/23 01:00:00;;;;;;;32.20;23.10;;;;;;;-0.93;100.00;99670.93;109506;1253;65750;-74
2023/11/23 01:02:27;;;;;;;32.50;22.00;;;;;;;-0.92;100.00;99663.95;109539;1253;67759;-73
2023/11/23 01:04:53;;;;;;;31.40;20.90;;;;;;;-0.93;100.00;99654.88;109497;1254;63925;-73
2023/11/23 01:07:20;;;;;;;30.50;21.10;;;;;;;-0.93;100.00;99654.54;109539;1252;58959;-72
2023/11/23 01:09:46;;;;;;;31.90;21.10;;;;;;;-0.94;100.00;99647.40;109255;1254;58992;-74
2023/11/23 01:12:14;;;;;;;26.60;17.30;;;;;;;-0.95;100.00;99637.81;109542;1252;59051;-73
2023/11/23 01:14:40;;;;;;;28.30;19.40;;;;;;;-0.96;100.00;99627.00;109555;1252;60118;-73
2023/11/23 01:17:07;;;;;;;25.00;17.50;;;;;;;-0.98;100.00;99622.84;109503;1253;62552;-73
2023/11/23 01:19:33;;;;;;;25.60;18.60;;;;;;;-0.98;100.00;99617.62;109212;1252;59045;-72
2023/11/23 01:22:00;;;;;;;25.70;18.90;;;;;;;-1.00;100.00;99618.34;109481;1254;59264;-73
2023/11/23 01:24:27;;;;;;;23.50;17.00;;;;;;;-1.00;100.00;99619.91;109298;1252;64560;-73
2023/11/23 01:26:53;;;;;;;25.80;18.60;;;;;;;-1.00;100.00;99614.48;109511;1253;60211;-73
2023/11/23 01:29:19;;;;;;;24.80;17.80;;;;;;;-1.00;100.00;99602.98;109500;1252;62860;-73
2023/11/23 01:31:46;;;;;;;22.00;17.10;;;;;;;-0.99;100.00;99592.17;109255;1253;59084;-73
2023/11/23 01:34:12;;;;;;;24.40;16.80;;;;;;;-0.98;100.00;99586.75;109535;1253;58865;-73
2023/11/23 01:36:39;;;;;;;26.40;18.20;;;;;;;-0.97;100.00;99588.31;109525;1253;59353;-74
2023/11/23 01:39:07;;;;;;;24.10;17.20;;;;;;;-0.99;100.00;99580.64;109555;1254;59402;-73
2023/11/23 01:41:33;;;;;;;26.00;18.90;;;;;;;-0.99;100.00;99571.94;109534;1254;62789;-73
2023/11/23 01:44:00;;;;;;;22.10;15.40;;;;;;;-0.99;100.00;99572.11;109514;1253;59011;-73
2023/11/23 01:46:26;;;;;;;27.10;17.70;;;;;;;-0.98;100.00;99572.10;109400;1254;59275;-73
2023/11/23 01:48:55;;;;;;;21.80;15.00;;;;;;;-0.96;100.00;99572.26;109546;1252;59282;-73
2023/11/23 01:51:22;;;;;;;22.40;15.40;;;;;;;-0.95;100.00;99577.12;109545;1254;60230;-72
2023/11/23 01:53:49;;;;;;;25.00;18.30;;;;;;;-0.94;100.00;99571.52;109499;1253;62588;-73
2023/11/23 01:56:18;;;;;;;25.20;17.70;;;;;;;-0.92;100.00;99566.96;109531;1253;59669;-73
2023/11/23 01:58:45;;;;;;;24.70;17.10;;;;;;;-0.92;100.00;99562.42;109531;1253;59179;-73
2023/11/23 02:01:12;;;;;;;27.40;19.00;;;;;;;-0.90;100.00;99564.16;109569;1253;66017;-73
2023/11/23 02:03:39;;;;;;;26.00;18.30;;;;;;;-0.89;100.00;99564.14;109522;1253;59002;-73
2023/11/23 02:06:05;;;;;;;26.30;17.60;;;;;;;-0.87;100.00;99561.14;109477;1253;62533;-74
2023/11/23 02:08:32;;;;;;;27.00;18.70;;;;;;;-0.86;100.00;99559.58;109492;1253;59017;-73
2023/11/23 02:10:58;;;;;;;24.40;17.30;;;;;;;-0.85;100.00;99557.13;109540;1253;59030;-73
2023/11/23 02:13:25;;;;;;;25.40;16.90;;;;;;;-0.84;100.00;99551.01;109277;1252;59080;-73
2023/11/23 02:15:51;;;;;;;24.60;18.40;;;;;;;-0.83;100.00;99551.88;109578;1253;60138;-73
2023/11/23 02:18:18;;;;;;;24.00;15.90;;;;;;;-0.82;100.00;99551.51;109510;1253;59077;-73
2023/11/23 02:20:46;;;;;;;28.50;18.30;;;;;;;-0.81;100.00;99547.65;109535;1252;58956;-73
2023/11/23 02:23:13;;;;;;;24.90;17.50;;;;;;;-0.80;100.00;99543.27;109541;1253;59076;-73
2023/11/23 02:25:39;;;;;;;23.30;16.40;;;;;;;-0.79;100.00;99537.17;109543;1253;66032;-72
2023/11/23 02:28:06;;;;;;;27.90;19.00;;;;;;;-0.80;100.00;99531.94;109531;1254;59796;-73
2023/11/23 02:30:33;;;;;;;26.20;18.20;;;;;;;-0.80;100.00;99527.06;109492;1253;62639;-74
2023/11/23 02:33:01;;;;;;;25.40;17.10;;;;;;;-0.81;100.00;99526.73;109553;1253;59394;-73
2023/11/23 02:35:28;;;;;;;25.30;17.70;;;;;;;-0.80;100.00;99519.55;109424;1253;59041;-73
2023/11/23 02:37:54;;;;;;;25.40;17.60;;;;;;;-0.81;100.00;99510.48;109556;1252;66094;-74
2023/11/23 02:40:21;;;;;;;27.80;19.30;;;;;;;-0.80;100.00;99503.67;109577;1254;59744;-73
2023/11/23 02:42:47;;;;;;;23.90;16.80;;;;;;;-0.79;100.00;99502.27;109519;1252;64017;-72
2023/11/23 02:45:13;;;;;;;25.70;17.10;;;;;;;-0.80;100.00;99504.38;109511;1252;59003;-73
2023/11/23 02:47:40;;;;;;;25.30;17.30;;;;;;;-0.80;100.00;99504.38;109549;1252;59008;-74
2023/11/23 02:50:07;;;;;;;23.70;17.20;;;;;;;-0.78;100.00;99498.94;109460;1253;58964;-74
2023/11/23 02:52:33;;;;;;;26.30;18.30;;;;;;;-0.75;100.00;99492.45;109263;1254;59033;-74
2023/11/23 02:55:00;;;;;;;24.00;16.30;;;;;;;-0.73;100.00;99488.07;109571;1253;58979;-73
2023/11/23 02:57:26;;;;;;;20.30;14.40;;;;;;;-0.72;100.00;99484.03;109476;1252;58952;-74
2023/11/23 02:59:53;;;;;;;25.70;17.90;;;;;;;-0.71;100.00;99473.55;109545;1253;59031;-72
2023/11/23 03:02:20;;;;;;;21.70;15.40;;;;;;;-0.70;100.00;99467.25;109531;1252;66045;-72
2023/11/23 03:04:47;;;;;;;26.00;18.50;;;;;;;-0.70;100.00;99474.05;109549;1253;59905;-72
2023/11/23 03:07:13;;;;;;;26.80;18.70;;;;;;;-0.69;100.00;99477.02;109571;1252;64100;-73
2023/11/23 03:09:39;;;;;;;28.80;18.30;;;;;;;-0.68;100.00;99483.11;109508;1252;58972;-72
2023/11/23 03:12:06;;;;;;;25.20;15.80;;;;;;;-0.67;100.00;99480.98;109567;1252;59018;-74
2023/11/23 03:14:34;;;;;;;25.70;16.40;;;;;;;-0.64;100.00;99478.52;109524;1253;64835;-73
2023/11/23 03:17:02;;;;;;;27.50;18.50;;;;;;;-0.62;100.00;99475.00;109507;1253;59252;-71
2023/11/23 03:19:29;;;;;;;23.50;17.20;;;;;;;-0.59;100.00;99476.18;109504;1253;64048;-72
2023/11/23 03:21:56;;;;;;;24.30;17.60;;;;;;;-0.57;100.00;99464.30;109531;1252;59128;-73
2023/11/23 03:24:22;;;;;;;28.40;19.10;;;;;;;-0.56;100.00;99458.16;109674;1251;59067;-73
2023/11/23 03:26:48;;;;;;;27.80;19.00;;;;;;;-0.54;100.00;99457.59;109596;1251;58921;-73
2023/11/23 03:29:15;;;;;;;26.50;18.30;;;;;;;-0.51;100.00;99456.00;109639;1251;58931;-74
2023/11/23 03:31:41;;;;;;;26.40;17.50;;;;;;;-0.49;100.00;99460.14;109606;1251;58986;-73
2023/11/23 03:34:08;;;;;;;23.00;15.60;;;;;;;-0.46;100.00;99456.63;109637;1251;58973;-73
2023/11/23 03:36:34;;;;;;;21.40;15.60;;;;;;;-0.43;100.00;99458.67;109632;1251;58942;-74
2023/11/23 03:39:01;;;;;;;25.50;16.90;;;;;;;-0.41;100.00;99460.73;109587;1250;58952;-74
2023/11/23 03:41:27;;;;;;;26.90;18.10;;;;;;;-0.38;100.00;99464.36;109633;1251;59013;-73
2023/11/23 03:43:53;;;;;;;21.20;14.10;;;;;;;-0.36;100.00;99460.14;109582;1251;59111;-73
2023/11/23 03:46:20;;;;;;;22.10;16.20;;;;;;;-0.35;100.00;99453.84;109614;1251;59016;-74
2023/11/23 03:48:46;;;;;;;21.50;14.60;;;;;;;-0.34;100.00;99451.73;109602;1251;59508;-72
2023/11/23 03:51:14;;;;;;;23.40;16.20;;;;;;;-0.33;100.00;99449.44;109625;1251;58951;-74
2023/11/23 03:53:40;;;;;;;24.70;17.10;;;;;;;-0.31;100.00;99445.56;109641;1251;59344;-73
2023/11/23 03:56:08;;;;;;;22.80;16.30;;;;;;;-0.29;100.00;99443.27;109379;1251;64011;-72
2023/11/23 03:58:34;;;;;;;26.60;18.40;;;;;;;-0.27;100.00;99441.14;109641;1251;59022;-74
2023/11/23 04:01:04;;;;;;;24.90;17.00;;;;;;;-0.26;100.00;99438.88;109624;1251;59019;-73
2023/11/23 04:03:30;;;;;;;24.20;17.00;;;;;;;-0.25;100.00;99430.80;109597;1251;64837;-72
2023/11/23 04:05:58;;;;;;;23.70;17.40;;;;;;;-0.25;100.00;99424.52;109447;1251;59108;-73
2023/11/23 04:08:24;;;;;;;26.70;17.20;;;;;;;-0.24;100.00;99423.11;109611;1251;64520;-73
2023/11/23 04:10:51;;;;;;;25.40;16.60;;;;;;;-0.23;100.00;99416.29;109657;1251;59159;-74
2023/11/23 04:13:17;;;;;;;22.40;14.50;;;;;;;-0.23;100.00;99413.31;109514;1251;58944;-73
2023/11/23 04:15:45;;;;;;;23.40;15.60;;;;;;;-0.22;100.00;99415.91;109653;1253;59144;-73
2023/11/23 04:18:12;;;;;;;22.40;16.10;;;;;;;-0.21;100.00;99420.63;109677;1251;58998;-73
2023/11/23 04:20:38;;;;;;;21.00;15.00;;;;;;;-0.20;100.00;99419.73;109633;1251;64066;-72
2023/11/23 04:23:05;;;;;;;26.60;17.50;;;;;;;-0.19;100.00;99415.52;109589;1251;59019;-71
2023/11/23 04:25:31;;;;;;;23.40;16.30;;;;;;;-0.18;100.00;99406.80;109647;1251;59080;-72
2023/11/23 04:27:58;;;;;;;22.60;15.40;;;;;;;-0.18;100.00;99394.02;109673;1251;66052;-73
2023/11/23 04:30:25;;;;;;;22.40;15.70;;;;;;;-0.17;100.00;99390.69;109646;1250;59243;-72
2023/11/23 04:32:52;;;;;;;24.60;16.60;;;;;;;-0.17;100.00;99394.52;108870;1251;1002110;-73
2023/11/23 04:35:18;;;;;;;24.40;16.20;;;;;;;-0.17;100.00;99389.83;109579;1251;59032;-73
2023/11/23 04:37:45;;;;;;;25.90;16.40;;;;;;;-0.16;100.00;99387.53;109620;1251;59055;-73
2023/11/23 04:40:11;;;;;;;25.60;16.90;;;;;;;-0.15;100.00;99384.20;109587;1250;58956;-73
2023/11/23 04:42:38;;;;;;;25.60;16.60;;;;;;;-0.15;100.00;99384.54;109638;1250;59039;-73
2023/11/23 04:45:05;;;;;;;25.10;17.20;;;;;;;-0.15;100.00;99377.38;109600;1251;64065;-73
2023/11/23 04:47:32;;;;;;;20.90;14.30;;;;;;;-0.16;100.00;99373.20;109542;1251;58982;-73
2023/11/23 04:49:58;;;;;;;20.90;14.60;;;;;;;-0.15;100.00;99368.65;109566;1251;59115;-73
2023/11/23 04:52:24;;;;;;;25.60;16.00;;;;;;;-0.15;100.00;99362.20;109626;1251;58965;-73
2023/11/23 04:54:51;;;;;;;18.60;12.80;;;;;;;-0.15;100.00;99353.81;109597;1250;58924;-73
2023/11/23 04:57:17;;;;;;;25.70;15.50;;;;;;;-0.14;100.00;99349.60;109543;1251;59455;-73
2023/11/23 04:59:44;;;;;;;26.20;16.00;;;;;;;-0.13;100.00;99342.06;109394;1254;59011;-73
2023/11/23 05:02:10;;;;;;;23.10;14.60;;;;;;;-0.13;100.00;99338.23;109596;1251;58943;-73
2023/11/23 05:04:37;;;;;;;22.90;14.90;;;;;;;-0.13;100.00;99332.48;109588;1251;58948;-73
2023/11/23 05:07:05;;;;;;;26.70;16.90;;;;;;;-0.13;100.00;99327.23;109592;1250;58988;-74
2023/11/23 05:09:32;;;;;;;20.10;13.30;;;;;;;-0.12;100.00;99320.75;109611;1251;64706;-73
2023/11/23 05:11:59;;;;;;;26.40;16.70;;;;;;;-0.12;100.00;99312.36;109604;1251;59118;-73
2023/11/23 05:14:25;;;;;;;26.80;16.40;;;;;;;-0.11;100.00;99315.84;109554;1251;59049;-73
2023/11/23 05:16:52;;;;;;;21.20;13.90;;;;;;;-0.11;100.00;99302.38;109453;1250;193477;-73
2023/11/23 05:19:20;;;;;;;19.10;13.00;;;;;;;-0.12;100.00;99289.13;109582;1251;60215;-73
2023/11/23 05:21:47;;;;;;;21.70;15.10;;;;;;;-0.12;100.00;99282.16;108826;1251;1002360;-73
2023/11/23 05:24:14;;;;;;;22.50;14.50;;;;;;;-0.12;100.00;99277.96;109579;1251;59001;-73
2023/11/23 05:26:40;;;;;;;21.90;15.30;;;;;;;-0.13;100.00;99274.66;109584;1251;58942;-73
2023/11/23 05:29:07;;;;;;;24.30;16.20;;;;;;;-0.13;100.00;99269.95;109616;1251;66045;-73
2023/11/23 05:31:33;;;;;;;23.20;15.20;;;;;;;-0.11;100.00;99270.62;109655;1251;58988;-74
2023/11/23 05:34:02;;;;;;;21.70;15.20;;;;;;;-0.11;100.00;99269.38;109599;1251;59062;-73
2023/11/23 05:36:29;;;;;;;22.90;14.40;;;;;;;-0.10;100.00;99262.22;109517;1251;59021;-74
2023/11/23 05:38:55;;;;;;;19.10;13.90;;;;;;;-0.10;100.00;99258.20;109613;1251;59097;-73
2023/11/23 05:41:22;;;;;;;21.60;13.70;;;;;;;-0.09;100.00;99255.02;109608;1251;59834;-73
2023/11/23 05:43:50;;;;;;;22.70;14.80;;;;;;;-0.08;100.00;99255.01;109588;1251;60178;-73
2023/11/23 05:46:17;;;;;;;23.20;15.60;;;;;;;-0.06;100.00;99254.61;109617;1251;62819;-73
2023/11/23 05:48:44;;;;;;;21.80;14.00;;;;;;;-0.03;100.00;99262.59;109574;1251;59004;-72
2023/11/23 05:51:11;;;;;;;22.70;14.80;;;;;;;-0.02;100.00;99270.42;109639;1251;59030;-73
2023/11/23 05:53:37;;;;;;;27.50;17.20;;;;;;;0.01;100.00;99264.98;109622;1250;64816;-73
2023/11/23 05:56:04;;;;;;;26.00;16.20;;;;;;;0.01;100.00;99259.72;109615;1250;59044;-73
2023/11/23 05:58:30;;;;;;;23.50;14.80;;;;;;;0.03;100.00;99250.43;109391;1251;62870;-74
2023/11/23 06:00:57;;;;;;;21.70;14.50;;;;;;;0.04;100.00;99242.35;109541;1251;59009;-73
2023/11/23 06:03:23;;;;;;;25.80;16.10;;;;;;;0.06;100.00;99240.23;109585;1251;58982;-73
2023/11/23 06:05:51;;;;;;;26.10;15.10;;;;;;;0.08;100.00;99242.98;109592;1250;66076;-73
2023/11/23 06:08:17;;;;;;;25.40;17.20;;;;;;;0.10;100.00;99244.69;109601;1251;59953;-72
2023/11/23 06:10:44;;;;;;;25.70;16.90;;;;;;;0.12;100.00;99244.13;109608;1251;59095;-73
2023/11/23 06:13:10;;;;;;;25.60;17.10;;;;;;;0.13;100.00;99238.69;109625;1251;58952;-73
2023/11/23 06:15:37;;;;;;;26.60;16.90;;;;;;;0.16;100.00;99242.82;109656;1251;58933;-73
2023/11/23 06:18:04;;;;;;;21.50;14.30;;;;;;;0.18;100.00;99241.73;109667;1251;66152;-73
2023/11/23 06:20:30;;;;;;;27.50;17.50;;;;;;;0.21;100.00;99250.23;109558;1251;59055;-73
2023/11/23 06:22:57;;;;;;;25.40;16.20;;;;;;;0.25;100.00;99249.61;109564;1251;59436;-73
2023/11/23 06:25:23;;;;;;;26.70;16.50;;;;;;;0.29;100.00;99236.09;109623;1251;58992;-74
2023/11/23 06:27:50;;;;;;;28.00;16.10;;;;;;;0.31;100.00;99225.55;109647;1251;59177;-73
2023/11/23 06:30:17;;;;;;;25.00;15.30;;;;;;;0.34;100.00;99216.23;109303;1251;59175;-73
2023/11/23 06:32:44;;;;;;;22.50;14.20;;;;;;;0.37;100.00;99209.14;109599;1251;60277;-73
2023/11/23 06:35:10;;;;;;;23.80;15.10;;;;;;;0.40;100.00;99198.61;109612;1251;59135;-73
2023/11/23 06:37:37;;;;;;;23.50;14.00;;;;;;;0.45;100.00;99190.64;109584;1251;59002;-73
2023/11/23 06:40:04;;;;;;;24.00;15.80;;;;;;;0.51;100.00;99186.48;109633;1251;58989;-73
2023/11/23 06:42:30;;;;;;;25.90;16.30;;;;;;;0.57;100.00;99181.27;109452;1250;66206;-74
2023/11/23 06:44:58;;;;;;;24.30;15.50;;;;;;;0.62;100.00;99182.89;109600;1251;59218;-73
2023/11/23 06:47:25;;;;;;;22.80;16.30;;;;;;;0.69;100.00;99189.40;109623;1251;64245;-73
2023/11/23 06:49:52;;;;;;;25.20;16.30;;;;;;;0.74;100.00;99196.25;109413;1251;59185;-72
2023/11/23 06:52:18;;;;;;;27.30;18.10;;;;;;;0.80;100.00;99177.23;109618;1251;59054;-74
2023/11/23 06:54:48;;;;;;;24.80;15.60;;;;;;;0.86;100.00;99168.68;109582;1250;66027;-74
2023/11/23 06:57:14;;;;;;;23.30;15.80;;;;;;;0.92;100.00;99172.73;106604;1251;1003007;-74
2023/11/23 06:59:41;;;;;;;23.70;15.40;;;;;;;0.97;100.00;99169.98;109584;1251;59157;-72
2023/11/23 07:02:09;;;;;;;26.40;16.90;;;;;;;1.03;100.00;99172.27;109614;1251;58970;-73
2023/11/23 07:04:36;;;;;;;19.60;13.80;;;;;;;1.12;100.00;99164.88;109623;1251;59015;-73
2023/11/23 07:07:03;;;;;;;25.60;15.80;;;;;;;1.21;100.00;99163.41;109628;1251;58999;-73
2023/11/23 07:09:30;;;;;;;23.30;16.60;;;;;;;1.27;100.00;99160.45;109595;1251;59378;-73
2023/11/23 07:11:57;;;;;;;24.00;15.40;;;;;;;1.36;100.00;99154.79;109596;1251;59025;-73
2023/11/23 07:14:23;;;;;;;22.80;14.90;;;;;;;1.42;100.00;99146.75;109607;1251;59035;-73
2023/11/23 07:16:51;;;;;;;18.20;12.80;;;;;;;1.46;100.00;99138.59;108893;1251;1002600;-73
2023/11/23 07:19:19;;;;;;;21.50;15.80;;;;;;;1.50;100.00;99118.35;109639;1251;66012;-73
2023/11/23 07:21:47;;;;;;;22.90;15.10;;;;;;;1.52;100.00;99111.11;109643;1250;59832;-72
2023/11/23 07:24:15;;;;;;;23.80;15.70;;;;;;;1.52;100.00;99109.52;109540;1251;64040;-73
2023/11/23 07:26:42;;;;;;;19.50;13.10;;;;;;;1.52;100.00;99109.34;109596;1251;59280;-73
2023/11/23 07:29:08;;;;;;;20.70;14.30;;;;;;;1.52;100.00;99121.61;109590;1251;59052;-73
2023/11/23 07:31:36;;;;;;;24.60;17.10;;;;;;;1.53;100.00;99112.80;109601;1251;66046;-73
2023/11/23 07:34:03;;;;;;;28.20;15.00;;;;;;;1.55;100.00;99103.84;109641;1250;58975;-72
2023/11/23 07:36:30;;;;;;;19.20;13.00;;;;;;;1.56;100.00;99106.61;109594;1251;64152;-74
2023/11/23 07:38:56;;;;;;;15.90;10.60;;;;;;;1.57;100.00;99110.43;109585;1251;58981;-73
2023/11/23 07:41:23;;;;;;;25.50;16.50;;;;;;;1.57;100.00;99104.84;109615;1251;58977;-73
2023/11/23 07:43:49;;;;;;;22.70;15.70;;;;;;;1.57;100.00;99098.34;109658;1251;58946;-73
2023/11/23 07:46:16;;;;;;;23.50;15.40;;;;;;;1.60;100.00;99096.70;109625;1251;60779;-73
2023/11/23 07:48:44;;;;;;;23.60;16.50;;;;;;;1.62;100.00;99093.12;109394;1251;65524;-74
2023/11/23 07:51:11;;;;;;;20.70;14.00;;;;;;;1.64;100.00;99097.27;109604;1250;58884;-74
2023/11/23 07:53:37;;;;;;;22.00;14.70;;;;;;;1.68;100.00;99098.04;109570;1251;58973;-74
2023/11/23 07:56:05;;;;;;;25.60;17.50;;;;;;;1.72;100.00;99102.14;109656;1250;67254;-73
2023/11/23 07:58:32;;;;;;;21.10;14.80;;;;;;;1.77;100.00;99101.83;109614;1251;61097;-74
2023/11/23 08:00:58;;;;;;;23.90;15.90;;;;;;;1.80;100.00;99092.27;109535;1251;64021;-74
2023/11/23 08:03:25;;;;;;;21.20;14.50;;;;;;;1.81;100.00;99087.85;109581;1251;59062;-74
2023/11/23 08:05:53;;;;;;;18.30;12.60;;;;;;;1.80;100.00;99086.84;109356;1251;59126;-73
2023/11/23 08:08:21;;;;;;;23.30;15.60;;;;;;;1.79;100.00;99080.91;109599;1253;66034;-74
2023/11/23 08:10:47;;;;;;;21.00;14.70;;;;;;;1.84;100.00;99075.15;109569;1251;60155;-73
2023/11/23 08:13:15;;;;;;;20.60;13.70;;;;;;;1.93;100.00;99076.43;109624;1251;65096;-73
2023/11/23 08:15:41;;;;;;;23.70;16.00;;;;;;;2.05;100.00;99073.64;109605;1251;58969;-74
2023/11/23 08:18:09;;;;;;;16.80;11.40;;;;;;;2.12;100.00;99081.30;109654;1251;58884;-74
2023/11/23 08:20:36;;;;;;;20.70;14.10;;;;;;;2.14;100.00;99084.73;109618;1251;67072;-74
2023/11/23 08:23:04;;;;;;;17.90;12.30;;;;;;;2.14;100.00;99088.23;109674;1251;60775;-73
2023/11/23 08:25:30;;;;;;;19.40;14.20;;;;;;;2.17;100.00;99086.38;109668;1251;64429;-73
2023/11/23 08:27:57;;;;;;;20.00;14.40;;;;;;;2.23;100.00;99096.02;108818;1251;1003475;-73
2023/11/23 08:30:24;;;;;;;19.00;13.10;;;;;;;2.29;100.00;99089.68;109656;1251;58941;-74
2023/11/23 08:32:50;;;;;;;20.80;13.70;;;;;;;2.37;100.00;99087.88;109576;1250;67238;-74
2023/11/23 08:35:17;;;;;;;18.10;12.70;;;;;;;2.45;100.00;99083.03;109624;1251;61222;-74
2023/11/23 08:37:44;;;;;;;19.50;11.80;;;;;;;2.54;100.00;99080.65;109553;1251;65096;-73
2023/11/23 08:40:11;;;;;;;16.50;11.00;;;;;;;2.58;100.00;99079.98;109569;1251;59067;-74
2023/11/23 08:42:42;;;;;;;19.40;13.10;;;;;;;2.60;100.00;99090.07;109623;1251;59025;-74
2023/11/23 08:45:09;;;;;;;19.90;14.10;;;;;;;2.62;100.00;99086.15;108822;1250;1003049;-74
2023/11/23 08:47:35;;;;;;;17.60;12.50;;;;;;;2.67;100.00;99076.53;109632;1251;60140;-73
2023/11/23 08:50:02;;;;;;;14.10;11.70;;;;;;;2.71;100.00;99072.00;109626;1251;59040;-73
2023/11/23 08:52:29;;;;;;;20.60;14.70;;;;;;;2.73;100.00;99064.23;109621;1251;59267;-72
2023/11/23 08:54:55;;;;;;;19.30;14.00;;;;;;;2.75;100.00;99062.58;109653;1251;59319;-73
2023/11/23 08:57:22;;;;;;;18.00;13.10;;;;;;;2.76;100.00;99055.16;109654;1250;58903;-73
2023/11/23 08:59:48;;;;;;;17.60;13.00;;;;;;;2.80;100.00;99062.60;109296;1251;60205;-73
2023/11/23 09:02:16;;;;;;;16.50;12.30;;;;;;;2.84;100.00;99064.20;109577;1251;64130;-73
2023/11/23 09:04:43;;;;;;;17.00;12.60;;;;;;;2.89;100.00;99064.05;109592;1251;59052;-73
2023/11/23 09:07:10;;;;;;;18.30;12.30;;;;;;;2.91;100.00;99052.73;109332;1251;58999;-73
2023/11/23 09:09:36;;;;;;;18.50;13.70;;;;;;;2.94;100.00;99045.59;109613;1251;59191;-73
2023/11/23 09:12:03;;;;;;;15.20;11.40;;;;;;;2.96;100.00;99040.27;109624;1251;58988;-74
2023/11/23 09:14:30;;;;;;;18.70;12.70;;;;;;;2.98;100.00;99038.45;109620;1251;64075;-74
2023/11/23 09:16:56;;;;;;;16.00;12.00;;;;;;;2.98;100.00;99036.50;109262;1251;59084;-73
2023/11/23 09:19:23;;;;;;;15.00;11.90;;;;;;;2.97;100.00;99037.25;109621;1251;58958;-74
2023/11/23 09:21:50;;;;;;;18.70;12.50;;;;;;;2.96;100.00;99029.39;109612;1251;67218;-74
2023/11/23 09:24:17;;;;;;;16.70;13.50;;;;;;;2.95;100.00;99029.43;109622;1250;59016;-73
2023/11/23 09:26:46;;;;;;;20.00;13.70;;;;;;;2.95;100.00;99023.99;109351;1251;59034;-74
2023/11/23 09:29:13;;;;;;;19.90;13.90;;;;;;;2.96;100.00;99013.41;109604;1251;58989;-74
2023/11/23 09:31:39;;;;;;;16.60;12.30;;;;;;;2.98;100.00;99008.98;109429;1250;58950;-74
2023/11/23 09:34:05;;;;;;;21.90;14.40;;;;;;;2.99;100.00;99009.98;109649;1251;59351;-74
2023/11/23 09:36:32;;;;;;;23.30;15.50;;;;;;;3.00;100.00;99001.52;109635;1250;58923;-73
2023/11/23 09:39:00;;;;;;;30.20;18.80;;;;;;;3.02;100.00;98992.66;109621;1251;64049;-73
2023/11/23 09:41:34;;;;;;;28.00;17.50;;;;;;;3.05;100.00;98993.77;109598;1251;59017;-73
2023/11/23 09:44:01;;;;;;;19.10;14.10;;;;;;;3.10;100.00;98981.67;109558;1251;59116;-72
2023/11/23 09:46:28;;;;;;;19.00;13.20;;;;;;;3.16;100.00;98978.13;109591;1251;65896;-73
2023/11/23 09:48:56;;;;;;;19.90;13.90;;;;;;;3.23;100.00;98966.29;109627;1251;60133;-75
2023/11/23 09:51:22;;;;;;;19.90;14.50;;;;;;;3.29;100.00;98957.60;109606;1251;65259;-72
2023/11/23 09:53:52;;;;;;;23.90;15.30;;;;;;;3.35;100.00;98948.60;109594;1251;59103;-72
2023/11/23 09:56:19;;;;;;;17.30;12.50;;;;;;;3.42;100.00;98946.08;109573;1251;58997;-73
2023/11/23 09:58:46;;;;;;;16.80;12.40;;;;;;;3.49;100.00;98937.71;109612;1250;65770;-73
2023/11/23 10:01:13;;;;;;;16.90;13.10;;;;;;;3.59;100.00;98927.30;109551;1251;59274;-72
2023/11/23 10:03:43;;;;;;;13.90;10.90;;;;;;;3.66;100.00;98919.80;109616;1251;63757;-72
2023/11/23 10:06:10;;;;;;;14.90;11.20;;;;;;;3.72;100.00;98916.75;109576;1251;59026;-74
2023/11/23 10:08:37;;;;;;;18.20;12.40;;;;;;;3.82;100.00;98907.05;109618;1251;59043;-73
2023/11/23 10:11:03;;;;;;;17.50;11.10;;;;;;;3.95;100.00;98907.06;109621;1251;66024;-72
2023/11/23 10:13:30;;;;;;;15.40;12.00;;;;;;;4.09;100.00;98899.43;109623;1251;59021;-72
2023/11/23 10:15:56;;;;;;;15.70;12.60;;;;;;;4.20;100.00;98892.27;109572;1251;62846;-73
2023/11/23 10:18:37;;;;;;;15.40;12.20;;;;;;;4.27;100.00;98886.00;109609;1251;58966;-72
2023/11/23 10:21:04;;;;;;;14.90;11.10;;;;;;;4.34;100.00;98875.83;109673;1251;59042;-73
2023/11/23 10:23:31;;;;;;;13.70;11.10;;;;;;;4.39;100.00;98880.52;109612;1251;65688;-72
2023/11/23 10:25:57;;;;;;;14.80;11.70;;;;;;;4.42;100.00;98877.80;108850;1250;1002512;-73
2023/11/23 10:28:24;;;;;;;15.30;11.40;;;;;;;4.44;100.00;98873.31;109629;1251;59009;-73
2023/11/23 10:30:50;;;;;;;13.70;11.10;;;;;;;4.46;100.00;98869.55;109590;1251;58944;-72
2023/11/23 10:33:19;;;;;;;14.40;10.70;;;;;;;4.46;100.00;98873.23;109617;1251;58999;-72
2023/11/23 10:35:50;;;;;;;14.70;11.40;;;;;;;4.48;100.00;98866.30;109560;1250;64646;-72
2023/11/23 10:38:17;;;;;;;15.70;11.10;;;;;;;4.48;100.00;98858.38;109658;1251;59871;-72
2023/11/23 10:40:45;;;;;;;14.30;10.80;;;;;;;4.48;100.00;98851.00;109576;1251;62855;-72
2023/11/23 10:43:13;;;;;;;11.30;9.40;;;;;;;4.44;100.00;98846.92;109606;1251;59008;-73
2023/11/23 10:45:42;;;;;;;17.00;11.70;;;;;;;4.39;100.00;98839.02;109594;1251;58866;-73
2023/11/23 10:48:11;;;;;;;14.80;10.30;;;;;;;4.38;100.00;98837.52;109585;1251;65748;-73
2023/11/23 10:50:39;;;;;;;13.80;11.20;;;;;;;4.39;100.00;98834.11;109640;1250;59381;-73
2023/11/23 10:53:08;;;;;;;12.30;10.00;;;;;;;4.42;100.00;98824.84;109558;1251;64077;-73
2023/11/23 10:55:34;;;;;;;14.60;10.10;;;;;;;4.48;100.00;98821.95;109309;1251;59115;-75
2023/11/23 10:58:06;;;;;;;12.10;9.00;;;;;;;4.52;100.00;98814.16;109543;1254;59059;-73
2023/11/23 11:00:33;;;;;;;13.40;10.20;;;;;;;4.57;100.00;98800.93;109611;1251;65663;-73
2023/11/23 11:03:04;;;;;;;16.20;11.20;;;;;;;4.66;100.00;98803.17;109264;1251;59091;-73
2023/11/23 11:05:35;;;;;;;15.00;10.30;;;;;;;4.75;100.00;98795.02;109593;1251;64853;-73